createdAt,value
2022-12-03T00:00:53.123Z,1
2022-12-03T00:01:53.112Z,1.1
2022-12-03T00:02:53.402Z,1.1
2022-12-03T00:03:53.476Z,1
2022-12-03T00:04:53.580Z,0.9
2022-12-03T00:05:53.342Z,1
2022-12-03T00:06:53.490Z,1.1
2022-12-03T00:07:53.565Z,1.1
2022-12-03T00:08:53.522Z,1.1
2022-12-03T00:09:53.582Z,1.2
2022-12-03T00:10:53.631Z,1.3
2022-12-03T00:11:53.663Z,1.1
2022-12-03T00:12:53.785Z,1
2022-12-03T00:13:53.798Z,1
2022-12-03T00:14:54.084Z,1
2022-12-03T00:15:53.954Z,1.1
2022-12-03T00:16:54.044Z,1
2022-12-03T00:17:54.044Z,1.1
2022-12-03T00:18:54.098Z,1.1
2022-12-03T00:19:54.139Z,1.1
2022-12-03T00:20:54.241Z,1
2022-12-03T00:21:54.233Z,1
2022-12-03T00:22:54.370Z,1
2022-12-03T00:23:54.362Z,1
2022-12-03T00:24:54.755Z,0.9
2022-12-03T00:25:54.439Z,0.9
2022-12-03T00:26:54.517Z,1
2022-12-03T00:27:54.566Z,1
2022-12-03T00:28:54.622Z,1.1
2022-12-03T00:29:54.672Z,1.1
2022-12-03T00:30:54.826Z,1.1
2022-12-03T00:31:54.792Z,1.1
2022-12-03T00:32:54.852Z,1.1
2022-12-03T00:33:54.954Z,1.1
2022-12-03T00:34:55.337Z,1.2
2022-12-03T00:35:55.153Z,1.1
2022-12-03T00:36:55.230Z,1.1
2022-12-03T00:37:55.279Z,1.2
2022-12-03T00:38:55.375Z,1.3
2022-12-03T00:39:55.371Z,1.2
2022-12-03T00:40:55.426Z,1.4
2022-12-03T00:41:55.466Z,1.3
2022-12-03T00:42:55.595Z,1.2
2022-12-03T00:43:55.613Z,1.2
2022-12-03T00:44:55.839Z,1.2
2022-12-03T00:45:55.736Z,1.3
2022-12-03T00:46:55.913Z,1.4
2022-12-03T00:47:55.866Z,1.4
2022-12-03T00:48:55.872Z,1.3
2022-12-03T00:49:55.917Z,1.2
2022-12-03T00:50:56.012Z,1.2
2022-12-03T00:51:56.005Z,1.3
2022-12-03T00:52:56.169Z,1.3
2022-12-03T00:53:56.203Z,1.2
2022-12-03T00:54:56.400Z,1.1
2022-12-03T00:55:56.230Z,1.1
2022-12-03T00:56:56.333Z,1.2
2022-12-03T00:57:56.368Z,1.2
2022-12-03T00:58:56.629Z,1.1
2022-12-03T00:59:56.463Z,1.1
2022-12-03T01:00:56.628Z,1.1
2022-12-03T01:01:56.685Z,1.2
2022-12-03T01:02:56.734Z,1.2
2022-12-03T01:03:56.701Z,1.1
2022-12-03T01:04:57.253Z,1.2
2022-12-03T01:05:56.836Z,1.3
2022-12-03T01:06:56.874Z,1.1
2022-12-03T01:07:57.071Z,1.2
2022-12-03T01:08:57.118Z,1.2
2022-12-03T01:09:57.121Z,1.3
2022-12-03T01:10:57.235Z,1.3
2022-12-03T01:11:57.294Z,1.3
2022-12-03T01:12:57.360Z,1.2
2022-12-03T01:13:57.383Z,1.1
2022-12-03T01:14:57.442Z,1.1
2022-12-03T01:15:57.518Z,1.1
2022-12-03T01:16:57.495Z,1.1
2022-12-03T01:17:57.560Z,1.1
2022-12-03T01:18:57.637Z,1.1
2022-12-03T01:19:57.648Z,1.1
2022-12-03T01:20:57.746Z,1.1
2022-12-03T01:21:57.775Z,1
2022-12-03T01:22:57.851Z,1.2
2022-12-03T01:23:57.867Z,1.3
2022-12-03T01:24:57.952Z,1.2
2022-12-03T01:25:57.996Z,1.2
2022-12-03T01:26:58.190Z,1.2
2022-12-03T01:27:58.134Z,1.2
2022-12-03T01:28:58.227Z,1.3
2022-12-03T01:29:58.250Z,1.3
2022-12-03T01:30:58.798Z,1.2
2022-12-03T01:31:58.339Z,1.2
2022-12-03T01:32:58.429Z,1.2
2022-12-03T01:33:58.460Z,1.2
2022-12-03T01:34:58.655Z,1.1
2022-12-03T01:35:58.601Z,1.1
2022-12-03T01:36:58.735Z,1.1
2022-12-03T01:37:58.711Z,1
2022-12-03T01:38:58.845Z,1
2022-12-03T01:39:58.821Z,1.1
2022-12-03T01:40:58.933Z,1.1
2022-12-03T01:41:58.908Z,1.1
2022-12-03T01:42:59.047Z,1.1
2022-12-03T01:43:59.018Z,1.1
2022-12-03T01:44:59.127Z,1.1
2022-12-03T01:45:59.127Z,1.1
2022-12-03T01:46:59.370Z,1.2
2022-12-03T01:47:59.296Z,1.1
2022-12-03T01:48:59.327Z,1.1
2022-12-03T01:49:59.376Z,1.1
2022-12-03T01:50:59.454Z,1.1
2022-12-03T01:51:59.493Z,1.1
2022-12-03T01:52:59.656Z,1.1
2022-12-03T01:53:59.607Z,1
2022-12-03T01:54:59.651Z,1
2022-12-03T01:55:59.708Z,1
2022-12-03T01:56:59.735Z,1
2022-12-03T01:57:59.803Z,1.1
2022-12-03T01:58:59.990Z,1.2
2022-12-03T01:59:59.919Z,1.2
2022-12-03T02:01:00.031Z,1.2
2022-12-03T02:02:00.082Z,1.1
2022-12-03T02:03:00.181Z,1
2022-12-03T02:04:00.276Z,1.1
2022-12-03T02:05:00.188Z,1.2
2022-12-03T02:06:00.246Z,1.1
2022-12-03T02:07:00.310Z,1.1
2022-12-03T02:08:00.423Z,1.1
2022-12-03T02:09:00.437Z,1.1
2022-12-03T02:10:00.461Z,1.1
2022-12-03T02:11:01.165Z,1.2
2022-12-03T02:12:00.569Z,1.2
2022-12-03T02:13:00.732Z,1.2
2022-12-03T02:14:00.690Z,1.3
2022-12-03T02:15:00.859Z,1.2
2022-12-03T02:16:00.872Z,1.1
2022-12-03T02:17:00.929Z,1.2
2022-12-03T02:18:00.948Z,1.2
2022-12-03T02:19:00.978Z,1.1
2022-12-03T02:20:01.025Z,1.2
2022-12-03T02:21:01.128Z,1.2
2022-12-03T02:22:01.168Z,1.1
2022-12-03T02:23:01.243Z,1.1
2022-12-03T02:24:01.285Z,1.1
2022-12-03T02:25:01.431Z,1.1
2022-12-03T02:26:01.425Z,1.1
2022-12-03T02:27:01.543Z,1.1
2022-12-03T02:28:01.537Z,1.1
2022-12-03T02:29:01.567Z,1.2
2022-12-03T02:30:01.654Z,1.1
2022-12-03T02:31:01.784Z,1.1
2022-12-03T02:32:01.722Z,1.2
2022-12-03T02:33:01.824Z,1.3
2022-12-03T02:34:01.837Z,1.2
2022-12-03T02:35:01.906Z,1.2
2022-12-03T02:36:03.708Z,1.1
2022-12-03T02:37:01.991Z,1.2
2022-12-03T02:38:02.035Z,1.2
2022-12-03T02:39:02.063Z,1.2
2022-12-03T02:40:02.134Z,1.2
2022-12-03T02:41:02.208Z,1.3
2022-12-03T02:42:02.242Z,1.3
2022-12-03T02:43:02.381Z,1.3
2022-12-03T02:44:02.367Z,1.3
2022-12-03T02:45:05.264Z,1.3
2022-12-03T02:46:02.488Z,1.2
2022-12-03T02:47:02.704Z,1.1
2022-12-03T02:48:02.626Z,1.1
2022-12-03T02:49:02.739Z,1.1
2022-12-03T02:50:02.779Z,1.1
2022-12-03T02:51:02.820Z,1.1
2022-12-03T02:52:02.821Z,1
2022-12-03T02:53:02.946Z,1
2022-12-03T02:54:02.924Z,1.1
2022-12-03T02:55:03.066Z,1
2022-12-03T02:56:03.045Z,1
2022-12-03T02:57:03.090Z,1.1
2022-12-03T02:58:03.147Z,1.1
2022-12-03T02:59:03.207Z,1.1
2022-12-03T03:00:03.247Z,1.3
2022-12-03T03:01:03.429Z,1.3
2022-12-03T03:02:03.470Z,1.3
2022-12-03T03:03:03.521Z,1.2
2022-12-03T03:04:03.524Z,1.1
2022-12-03T03:05:03.638Z,1.1
2022-12-03T03:06:03.620Z,1.1
2022-12-03T03:07:03.752Z,1.1
2022-12-03T03:08:03.824Z,1.1
2022-12-03T03:09:03.830Z,1.1
2022-12-03T03:10:03.833Z,1.2
2022-12-03T03:11:03.938Z,1.3
2022-12-03T03:12:03.939Z,1.2
2022-12-03T03:13:04.101Z,1.1
2022-12-03T03:14:04.099Z,1.1
2022-12-03T03:15:04.083Z,1
2022-12-03T03:16:04.233Z,1.1
2022-12-03T03:17:04.267Z,1.2
2022-12-03T03:18:04.293Z,1.2
2022-12-03T03:19:04.399Z,1.1
2022-12-03T03:20:04.511Z,1.1
2022-12-03T03:21:08.234Z,1.1
2022-12-03T03:22:04.509Z,1
2022-12-03T03:23:04.684Z,1
2022-12-03T03:24:04.626Z,1
2022-12-03T03:25:56.199Z,1.1
2022-12-03T03:26:04.694Z,1.2
2022-12-03T03:27:04.808Z,1.3
2022-12-03T03:28:04.873Z,1.3
2022-12-03T03:29:04.844Z,1.2
2022-12-03T03:30:04.908Z,1.2
2022-12-03T03:31:04.937Z,1.2
2022-12-03T03:32:05.029Z,1.3
2022-12-03T03:33:05.052Z,1.3
2022-12-03T03:34:05.061Z,1.3
2022-12-03T03:35:05.179Z,1.2
2022-12-03T03:36:05.191Z,1.2
2022-12-03T03:37:05.231Z,1.3
2022-12-03T03:38:05.336Z,1.2
2022-12-03T03:39:05.445Z,1.1
2022-12-03T03:40:05.455Z,1.2
2022-12-03T03:41:05.549Z,1.2
2022-12-03T03:42:05.529Z,1.3
2022-12-03T03:43:05.679Z,1.2
2022-12-03T03:44:05.694Z,1.2
2022-12-03T03:45:05.732Z,1.1
2022-12-03T03:46:05.805Z,1.2
2022-12-03T03:47:05.849Z,1.3
2022-12-03T03:48:05.871Z,1.1
2022-12-03T03:49:05.994Z,1.2
2022-12-03T03:50:05.967Z,1.1
2022-12-03T03:51:06.055Z,1.1
2022-12-03T03:52:06.029Z,1.3
2022-12-03T03:53:06.129Z,1.2
2022-12-03T03:54:06.172Z,1.2
2022-12-03T03:55:06.214Z,1.1
2022-12-03T03:56:06.218Z,1.1
2022-12-03T03:57:06.339Z,1.1
2022-12-03T03:58:06.319Z,1
2022-12-03T03:59:06.440Z,1
2022-12-03T04:00:06.395Z,0.9
2022-12-03T04:01:06.516Z,1.1
2022-12-03T04:02:06.585Z,1.2
2022-12-03T04:03:06.649Z,1.3
2022-12-03T04:04:06.666Z,1.2
2022-12-03T04:05:06.736Z,1.3
2022-12-03T04:06:06.717Z,1.2
2022-12-03T04:07:06.823Z,1.1
2022-12-03T04:08:06.932Z,1
2022-12-03T04:09:06.914Z,1.1
2022-12-03T04:10:06.939Z,1.1
2022-12-03T04:11:07.005Z,1
2022-12-03T04:12:07.108Z,1.1
2022-12-03T04:13:07.148Z,1.1
2022-12-03T04:14:07.196Z,1.2
2022-12-03T04:15:07.296Z,1.2
2022-12-03T04:16:07.335Z,1.1
2022-12-03T04:17:07.331Z,1.1
2022-12-03T04:18:07.499Z,1.2
2022-12-03T04:19:07.417Z,1.2
2022-12-03T04:20:07.492Z,1.1
2022-12-03T04:21:07.520Z,1.1
2022-12-03T04:22:07.556Z,1
2022-12-03T04:23:07.759Z,1
2022-12-03T04:24:07.703Z,1
2022-12-03T04:25:07.870Z,1.1
2022-12-03T04:26:07.800Z,1
2022-12-03T04:27:07.835Z,1
2022-12-03T04:28:07.905Z,1
2022-12-03T04:29:07.966Z,1
2022-12-03T04:31:28.022Z,0.9
2022-12-03T04:32:08.140Z,1
2022-12-03T04:33:08.284Z,0.9
2022-12-03T04:34:08.292Z,1
2022-12-03T04:35:08.341Z,0.9
2022-12-03T04:36:08.381Z,0.9
2022-12-03T04:37:08.486Z,1
2022-12-03T04:38:08.540Z,0.9
2022-12-03T04:39:08.655Z,0.9
2022-12-03T04:40:08.683Z,0.9
2022-12-03T04:41:08.696Z,1
2022-12-03T04:42:08.750Z,0.9
2022-12-03T04:43:08.902Z,0.9
2022-12-03T04:44:08.891Z,0.8
2022-12-03T04:45:09.048Z,0.9
2022-12-03T04:46:09.052Z,0.8
2022-12-03T04:47:09.037Z,0.8
2022-12-03T04:48:09.125Z,0.8
2022-12-03T04:49:09.256Z,0.7
2022-12-03T04:50:09.244Z,0.7
2022-12-03T04:51:09.326Z,0.7
2022-12-03T04:52:09.295Z,0.7
2022-12-03T04:53:09.373Z,0.7
2022-12-03T04:54:09.410Z,0.8
2022-12-03T04:55:09.555Z,0.9
2022-12-03T04:56:09.537Z,0.9
2022-12-03T04:57:09.633Z,0.9
2022-12-03T04:58:09.615Z,0.9
2022-12-03T04:59:14.309Z,0.9
2022-12-03T05:00:09.695Z,0.8
2022-12-03T05:01:09.819Z,0.9
2022-12-03T05:02:09.968Z,0.9
2022-12-03T05:03:09.847Z,0.9
2022-12-03T05:04:09.908Z,0.9
2022-12-03T05:05:10.056Z,0.8
2022-12-03T05:06:10.034Z,0.6
2022-12-03T05:07:10.145Z,0.6
2022-12-03T05:08:10.180Z,0.6
2022-12-03T05:09:10.186Z,0.7
2022-12-03T05:10:10.253Z,0.7
2022-12-03T05:11:10.310Z,0.8
2022-12-03T05:12:10.363Z,0.8
2022-12-03T05:13:10.440Z,0.7
2022-12-03T05:14:10.486Z,0.6
2022-12-03T05:15:10.511Z,0.6
2022-12-03T05:16:10.642Z,0.6
2022-12-03T05:17:10.659Z,0.7
2022-12-03T05:18:10.740Z,0.7
2022-12-03T05:19:10.722Z,0.6
2022-12-03T05:20:10.747Z,0.6
2022-12-03T05:21:10.810Z,0.7
2022-12-03T05:22:10.847Z,0.7
2022-12-03T05:23:10.918Z,0.6
2022-12-03T05:24:10.963Z,0.7
2022-12-03T05:25:11.036Z,0.7
2022-12-03T05:26:11.109Z,0.8
2022-12-03T05:27:11.186Z,0.7
2022-12-03T05:28:11.199Z,0.7
2022-12-03T05:29:11.270Z,0.6
2022-12-03T05:30:11.323Z,0.5
2022-12-03T05:31:11.525Z,0.6
2022-12-03T05:32:11.374Z,0.6
2022-12-03T05:33:11.522Z,0.6
2022-12-03T05:34:11.522Z,0.5
2022-12-03T05:35:11.631Z,0.5
2022-12-03T05:36:11.588Z,0.5
2022-12-03T05:37:11.656Z,0.4
2022-12-03T05:38:11.694Z,0.6
2022-12-03T05:39:11.717Z,0.6
2022-12-03T05:40:11.813Z,0.6
2022-12-03T05:41:11.920Z,0.5
2022-12-03T05:42:11.936Z,0.7
2022-12-03T05:43:12.021Z,0.6
2022-12-03T05:44:15.064Z,0.4
2022-12-03T05:45:12.085Z,0.4
2022-12-03T05:46:12.196Z,0.4
2022-12-03T05:47:12.177Z,0.5
2022-12-03T05:48:12.265Z,0.6
2022-12-03T05:49:12.316Z,0.6
2022-12-03T05:50:12.362Z,0.6
2022-12-03T05:51:12.431Z,0.8
2022-12-03T05:52:12.456Z,0.7
2022-12-03T05:53:12.559Z,0.6
2022-12-03T05:54:12.650Z,0.6
2022-12-03T05:55:12.655Z,0.7
2022-12-03T05:56:12.762Z,0.8
2022-12-03T05:57:12.977Z,0.6
2022-12-03T05:58:12.879Z,0.6
2022-12-03T05:59:12.928Z,0.6
2022-12-03T06:00:12.954Z,0.7
2022-12-03T06:01:12.998Z,0.6
2022-12-03T06:02:13.292Z,0.6
2022-12-03T06:03:13.251Z,0.6
2022-12-03T06:04:13.147Z,0.6
2022-12-03T06:05:13.181Z,0.7
2022-12-03T06:06:13.268Z,0.7
2022-12-03T06:07:14.239Z,0.5
2022-12-03T06:08:13.435Z,0.5
2022-12-03T06:09:13.394Z,0.7
2022-12-03T06:10:13.435Z,0.7
2022-12-03T06:11:13.483Z,0.5
2022-12-03T06:12:13.580Z,0.4
2022-12-03T06:13:13.591Z,0.6
2022-12-03T06:14:13.654Z,0.9
2022-12-03T06:15:13.818Z,0.9
2022-12-03T06:16:13.793Z,0.8
2022-12-03T06:17:13.806Z,0.9
2022-12-03T06:18:13.867Z,1
2022-12-03T06:19:13.899Z,0.9
2022-12-03T06:20:13.953Z,0.8
2022-12-03T06:21:14.006Z,0.6
2022-12-03T06:22:14.095Z,0.7
2022-12-03T06:23:14.154Z,0.6
2022-12-03T06:24:14.491Z,0.6
2022-12-03T06:25:14.264Z,0.6
2022-12-03T06:26:14.355Z,0.5
2022-12-03T06:27:14.385Z,0.6
2022-12-03T06:28:14.432Z,0.6
2022-12-03T06:29:14.485Z,0.6
2022-12-03T06:30:14.552Z,0.7
2022-12-03T06:31:14.688Z,0.7
2022-12-03T06:32:14.669Z,0.7
2022-12-03T06:33:14.737Z,0.7
2022-12-03T06:34:14.782Z,0.8
2022-12-03T06:35:14.801Z,0.6
2022-12-03T06:36:17.722Z,0.7
2022-12-03T06:37:14.918Z,0.6
2022-12-03T06:38:15.005Z,0.7
2022-12-03T06:39:15.023Z,0.8
2022-12-03T06:40:15.108Z,0.7
2022-12-03T06:41:15.140Z,0.7
2022-12-03T06:42:15.217Z,0.7
2022-12-03T06:43:15.307Z,0.8
2022-12-03T06:44:15.334Z,0.9
2022-12-03T06:45:15.402Z,0.8
2022-12-03T06:46:15.498Z,0.8
2022-12-03T06:47:15.559Z,0.8
2022-12-03T06:48:15.598Z,0.8
2022-12-03T06:49:15.658Z,0.8
2022-12-03T06:50:15.680Z,0.8
2022-12-03T06:51:15.744Z,0.8
2022-12-03T06:52:15.792Z,1
2022-12-03T06:53:15.855Z,1.1
2022-12-03T06:54:15.944Z,1
2022-12-03T06:55:15.967Z,1
2022-12-03T06:56:18.872Z,1
2022-12-03T06:57:16.093Z,1
2022-12-03T06:58:16.184Z,1
2022-12-03T06:59:16.232Z,0.8
2022-12-03T07:00:16.312Z,0.7
2022-12-03T07:01:16.444Z,0.7
2022-12-03T07:02:16.385Z,0.8
2022-12-03T07:03:16.548Z,0.7
2022-12-03T07:04:16.525Z,0.8
2022-12-03T07:05:16.610Z,0.8
2022-12-03T07:06:16.645Z,0.7
2022-12-03T07:07:16.702Z,0.7
2022-12-03T07:08:16.896Z,0.7
2022-12-03T07:09:16.790Z,0.7
2022-12-03T07:10:16.894Z,0.7
2022-12-03T07:11:16.890Z,0.7
2022-12-03T07:12:16.977Z,0.8
2022-12-03T07:13:17.059Z,0.7
2022-12-03T07:14:17.066Z,0.7
2022-12-03T07:15:17.121Z,0.6
2022-12-03T07:16:17.267Z,0.7
2022-12-03T07:17:17.289Z,0.8
2022-12-03T07:18:17.301Z,0.8
2022-12-03T07:19:17.374Z,0.8
2022-12-03T07:20:17.431Z,0.7
2022-12-03T07:21:17.512Z,0.7
2022-12-03T07:22:17.514Z,0.7
2022-12-03T07:23:17.598Z,0.7
2022-12-03T07:24:17.633Z,0.7
2022-12-03T07:25:22.767Z,0.7
2022-12-03T07:26:17.751Z,0.8
2022-12-03T07:27:17.874Z,0.8
2022-12-03T07:28:17.896Z,0.8
2022-12-03T07:29:17.962Z,0.7
2022-12-03T07:30:18.064Z,0.8
2022-12-03T07:31:18.104Z,0.9
2022-12-03T07:32:18.208Z,0.9
2022-12-03T07:33:18.528Z,0.9
2022-12-03T07:34:18.272Z,1
2022-12-03T07:35:18.356Z,0.9
2022-12-03T07:36:18.415Z,0.9
2022-12-03T07:37:22.779Z,1
2022-12-03T07:38:18.536Z,1.1
2022-12-03T07:39:18.543Z,1
2022-12-03T07:40:18.600Z,0.9
2022-12-03T07:41:18.667Z,0.8
2022-12-03T07:42:18.747Z,0.8
2022-12-03T07:43:18.777Z,0.9
2022-12-03T07:44:18.844Z,0.8
2022-12-03T07:45:18.893Z,0.8
2022-12-03T07:46:19.074Z,0.8
2022-12-03T07:47:19.021Z,0.7
2022-12-03T07:48:19.785Z,0.8
2022-12-03T07:49:19.280Z,0.8
2022-12-03T07:50:19.244Z,0.7
2022-12-03T07:51:19.284Z,0.8
2022-12-03T07:52:19.340Z,0.6
2022-12-03T07:53:19.427Z,0.7
2022-12-03T07:54:19.449Z,0.8
2022-12-03T07:55:19.474Z,0.8
2022-12-03T07:56:19.596Z,0.9
2022-12-03T07:57:19.589Z,1
2022-12-03T07:58:19.693Z,0.9
2022-12-03T07:59:19.730Z,1
2022-12-03T08:00:19.731Z,0.9
2022-12-03T08:01:19.933Z,1
2022-12-03T08:02:21.737Z,1
2022-12-03T08:03:19.917Z,1
2022-12-03T08:04:19.959Z,0.9
2022-12-03T08:05:20.052Z,1.1
2022-12-03T08:06:20.128Z,1.1
2022-12-03T08:07:20.233Z,1.1
2022-12-03T08:08:20.426Z,1.1
2022-12-03T08:09:20.410Z,1.1
2022-12-03T08:10:20.477Z,1.1
2022-12-03T08:11:20.909Z,1
2022-12-03T08:12:20.610Z,1
2022-12-03T08:13:20.683Z,1
2022-12-03T08:14:20.698Z,1.2
2022-12-03T08:15:20.754Z,1.2
2022-12-03T08:16:20.880Z,1
2022-12-03T08:17:20.911Z,1
2022-12-03T08:18:20.992Z,1
2022-12-03T08:19:21.025Z,1
2022-12-03T08:20:21.105Z,1.1
2022-12-03T08:21:21.227Z,1.1
2022-12-03T08:22:21.192Z,1.1
2022-12-03T08:23:21.284Z,1
2022-12-03T08:24:21.309Z,1
2022-12-03T08:25:21.340Z,1
2022-12-03T08:26:21.446Z,1
2022-12-03T08:27:21.653Z,0.9
2022-12-03T08:28:21.518Z,0.9
2022-12-03T08:29:21.616Z,1
2022-12-03T08:30:21.679Z,1.1
2022-12-03T08:31:25.758Z,1.2
2022-12-03T08:32:21.841Z,1.2
2022-12-03T08:33:21.861Z,1
2022-12-03T08:34:21.875Z,1.1
2022-12-03T08:35:21.986Z,1.1
2022-12-03T08:36:22.028Z,1.1
2022-12-03T08:37:22.058Z,1.1
2022-12-03T08:38:22.169Z,1.1
2022-12-03T08:39:22.193Z,1.1
2022-12-03T08:40:24.665Z,1
2022-12-03T08:41:31.876Z,1.1
2022-12-03T08:42:25.280Z,1
2022-12-03T08:43:22.431Z,0.9
2022-12-03T08:45:11.121Z,1
2022-12-03T08:45:22.571Z,1
2022-12-03T08:46:22.648Z,1
2022-12-03T08:47:22.690Z,1
2022-12-03T08:48:22.696Z,1
2022-12-03T08:49:22.813Z,1
2022-12-03T08:50:22.829Z,1
2022-12-03T08:51:22.895Z,1.1
2022-12-03T08:52:22.940Z,1.2
2022-12-03T08:53:23.032Z,1.1
2022-12-03T08:54:23.064Z,1.2
2022-12-03T08:55:23.130Z,1.2
2022-12-03T08:56:23.177Z,1.3
2022-12-03T08:57:23.234Z,1.2
2022-12-03T08:58:23.296Z,1.2
2022-12-03T08:59:23.348Z,1.3
2022-12-03T09:00:23.437Z,1.2
2022-12-03T09:01:23.530Z,1.2
2022-12-03T09:02:23.552Z,1.2
2022-12-03T09:03:23.623Z,1.2
2022-12-03T09:04:23.773Z,1.2
2022-12-03T09:05:23.741Z,1.2
2022-12-03T09:06:23.777Z,1.1
2022-12-03T09:07:23.866Z,1.1
2022-12-03T09:08:23.926Z,1.1
2022-12-03T09:09:23.946Z,1.1
2022-12-03T09:10:24.049Z,1.1
2022-12-03T09:11:24.071Z,1.1
2022-12-03T09:12:24.082Z,1.1
2022-12-03T09:13:24.178Z,1.1
2022-12-03T09:14:24.793Z,1.2
2022-12-03T09:15:24.483Z,1.3
2022-12-03T09:16:24.398Z,1.3
2022-12-03T09:17:24.413Z,1.3
2022-12-03T09:18:24.602Z,1.3
2022-12-03T09:19:24.543Z,1.4
2022-12-03T09:20:24.617Z,1.4
2022-12-03T09:21:24.715Z,1.3
2022-12-03T09:22:24.746Z,1.2
2022-12-03T09:23:24.809Z,1.3
2022-12-03T09:24:24.868Z,1.4
2022-12-03T09:25:24.915Z,1.4
2022-12-03T09:26:24.956Z,1.4
2022-12-03T09:29:26.963Z,1.2
2022-12-03T09:31:33.944Z,1.4
2022-12-03T09:32:25.397Z,1.3
2022-12-03T09:33:25.394Z,1.3
2022-12-03T09:34:25.401Z,1.3
2022-12-03T09:35:25.470Z,1.3
2022-12-03T09:36:26.727Z,1.4
2022-12-03T09:37:25.716Z,1.4
2022-12-03T09:38:25.691Z,1.4
2022-12-03T09:39:25.652Z,1.4
2022-12-03T09:40:25.716Z,1.5
2022-12-03T09:41:25.787Z,1.5
2022-12-03T09:42:25.834Z,1.5
2022-12-03T09:43:33.453Z,1.4
2022-12-03T09:44:25.960Z,1.3
2022-12-03T09:45:26.110Z,1.4
2022-12-03T09:46:26.177Z,1.3
2022-12-03T09:47:26.182Z,1.3
2022-12-03T09:48:26.263Z,1.4
2022-12-03T09:49:26.284Z,1.3
2022-12-03T09:50:26.375Z,1.4
2022-12-03T09:51:26.420Z,1.3
2022-12-03T09:52:26.495Z,1.3
2022-12-03T09:53:26.554Z,1.4
2022-12-03T09:54:26.602Z,1.4
2022-12-03T09:55:26.656Z,1.4
2022-12-03T09:56:26.675Z,1.3
2022-12-03T09:57:26.767Z,2.2
2022-12-03T09:58:30.473Z,2.4
2022-12-03T09:59:26.903Z,2
2022-12-03T10:00:26.956Z,1.7
2022-12-03T10:01:30.229Z,1.5
2022-12-03T10:02:27.072Z,1.6
2022-12-03T10:03:29.969Z,1.6
2022-12-03T10:04:27.200Z,1.5
2022-12-03T10:05:27.202Z,1.5
2022-12-03T10:06:27.269Z,1.5
2022-12-03T10:07:27.386Z,1.5
2022-12-03T10:08:31.946Z,1.4
2022-12-03T10:09:27.418Z,1.5
2022-12-03T10:10:27.479Z,1.5
2022-12-03T10:11:27.552Z,1.4
2022-12-03T10:12:27.710Z,1.4
2022-12-03T10:13:27.725Z,1.4
2022-12-03T10:14:27.800Z,1.6
2022-12-03T10:15:27.924Z,1.7
2022-12-03T10:16:27.842Z,1.7
2022-12-03T10:36:59.514Z,1.5
2022-12-03T10:37:59.557Z,1.4
2022-12-03T10:38:59.615Z,1.5
2022-12-03T10:39:59.676Z,1.6
2022-12-03T10:40:59.709Z,1.5
2022-12-03T10:41:59.770Z,1.5
2022-12-03T10:42:59.852Z,1.5
2022-12-03T10:43:59.911Z,1.4
2022-12-03T10:44:59.978Z,1.3
2022-12-03T10:46:03.701Z,1.4
2022-12-03T10:47:00.320Z,1.4
2022-12-03T10:48:00.136Z,1.4
2022-12-03T10:49:00.238Z,1.3
2022-12-03T10:50:00.252Z,1.3
2022-12-03T10:51:00.290Z,1.3
2022-12-03T10:52:00.355Z,1.3
2022-12-03T10:53:00.426Z,1.3
2022-12-03T10:54:00.460Z,1.3
2022-12-03T10:55:00.548Z,1.3
2022-12-03T10:56:00.530Z,1.4
2022-12-03T10:57:00.594Z,1.4
2022-12-03T10:58:00.664Z,1.4
2022-12-03T10:59:00.697Z,1.3
2022-12-03T11:00:00.780Z,1.3
2022-12-03T11:01:00.833Z,1.3
2022-12-03T11:02:00.959Z,1.5
2022-12-03T11:03:00.966Z,1.4
2022-12-03T11:04:01.054Z,1.4
2022-12-03T11:05:01.062Z,1.4
2022-12-03T11:06:01.153Z,1.3
2022-12-03T11:07:01.193Z,1.4
2022-12-03T11:08:01.277Z,1.3
2022-12-03T11:09:05.389Z,1.3
2022-12-03T11:10:01.301Z,1.4
2022-12-03T11:11:01.371Z,1.4
2022-12-03T11:12:01.407Z,1.6
2022-12-03T11:13:01.459Z,1.5
2022-12-03T11:14:01.522Z,1.3
2022-12-03T11:15:01.566Z,1.3
2022-12-03T11:16:01.723Z,1.4
2022-12-03T11:17:01.707Z,1.4
2022-12-03T11:18:01.764Z,1.4
2022-12-03T11:19:01.797Z,1.4
2022-12-03T11:20:01.872Z,1.6
2022-12-03T11:21:01.933Z,1.6
2022-12-03T11:22:02.259Z,1.5
2022-12-03T11:23:02.051Z,1.4
2022-12-03T11:24:02.088Z,1.4
2022-12-03T11:25:02.200Z,1.6
2022-12-03T11:26:02.344Z,1.6
2022-12-03T11:27:02.266Z,1.6
2022-12-03T11:28:02.303Z,1.6
2022-12-03T11:29:02.350Z,1.7
2022-12-03T11:30:02.464Z,1.6
2022-12-03T11:31:02.551Z,1.7
2022-12-03T11:32:02.518Z,1.6
2022-12-03T11:33:02.568Z,1.5
2022-12-03T11:34:02.849Z,1.4
2022-12-03T11:35:03.164Z,1.4
2022-12-03T11:36:04.383Z,1.4
2022-12-03T11:37:04.427Z,1.5
2022-12-03T11:38:04.917Z,1.6
2022-12-03T11:39:04.602Z,1.7
2022-12-03T11:40:04.620Z,1.6
2022-12-03T11:41:04.682Z,1.6
2022-12-03T11:42:04.723Z,1.7
2022-12-03T11:43:04.756Z,1.8
2022-12-03T11:44:04.990Z,1.7
2022-12-03T11:45:06.248Z,1.7
2022-12-03T11:46:04.972Z,1.6
2022-12-03T11:47:05.044Z,1.6
2022-12-03T11:48:06.217Z,1.6
2022-12-03T11:49:05.061Z,1.5
2022-12-03T11:50:05.102Z,1.5
2022-12-03T11:51:05.195Z,1.6
2022-12-03T11:52:05.256Z,1.6
2022-12-03T11:53:05.331Z,1.6
2022-12-03T11:54:05.375Z,1.6
2022-12-03T11:55:05.415Z,1.5
2022-12-03T11:56:05.502Z,1.6
2022-12-03T11:57:05.574Z,1.7
2022-12-03T11:58:05.631Z,1.6
2022-12-03T11:59:05.705Z,1.5
2022-12-03T12:00:05.753Z,1.5
2022-12-03T12:01:05.812Z,1.5
2022-12-03T12:02:05.880Z,1.6
2022-12-03T12:03:05.946Z,1.6
2022-12-03T12:04:05.997Z,1.6
2022-12-03T12:05:06.005Z,1.5
2022-12-03T12:06:06.056Z,1.4
2022-12-03T12:07:06.172Z,1.4
2022-12-03T12:08:06.181Z,1.4
2022-12-03T12:09:06.236Z,1.5
2022-12-03T12:10:06.298Z,1.6
2022-12-03T12:11:06.354Z,1.7
2022-12-03T12:12:06.381Z,1.6
2022-12-03T12:13:06.533Z,1.6
2022-12-03T12:14:06.475Z,1.7
2022-12-03T12:15:06.589Z,1.7
2022-12-03T12:16:06.593Z,1.6
2022-12-03T12:17:06.971Z,1.6
2022-12-03T12:18:06.866Z,1.5
2022-12-03T12:19:06.725Z,1.5
2022-12-03T12:20:06.781Z,1.5
2022-12-03T12:21:07.177Z,1.6
2022-12-03T12:22:06.933Z,1.8
2022-12-03T12:23:07.849Z,1.7
2022-12-03T12:24:07.092Z,1.6
2022-12-03T12:25:07.564Z,1.7
2022-12-03T12:26:07.129Z,1.7
2022-12-03T12:27:07.373Z,1.7
2022-12-03T12:28:07.224Z,1.7
2022-12-03T12:29:07.791Z,1.6
2022-12-03T12:30:07.350Z,1.7
2022-12-03T12:31:07.495Z,1.6
2022-12-03T12:32:07.590Z,1.8
2022-12-03T12:33:08.642Z,1.8
2022-12-03T12:34:07.629Z,1.8
2022-12-03T12:35:07.982Z,1.6
2022-12-03T12:36:07.721Z,1.6
2022-12-03T12:37:07.842Z,1.6
2022-12-03T12:38:07.797Z,1.5
2022-12-03T12:39:08.011Z,1.4
2022-12-03T12:40:07.924Z,1.4
2022-12-03T12:41:08.102Z,1.6
2022-12-03T12:42:11.053Z,1.5
2022-12-03T12:43:12.575Z,1.5
2022-12-03T12:44:08.174Z,1.5
2022-12-03T12:45:08.508Z,1.5
2022-12-03T12:46:25.205Z,1.6
2022-12-03T12:47:08.825Z,1.7
2022-12-03T12:48:11.629Z,1.6
2022-12-03T12:49:08.987Z,1.7
2022-12-03T12:50:08.538Z,1.6
2022-12-03T12:51:11.176Z,1.8
2022-12-03T12:52:08.629Z,1.8
2022-12-03T12:53:08.704Z,1.8
2022-12-03T12:54:20.791Z,1.6
2022-12-03T12:55:09.468Z,1.5
2022-12-03T12:56:08.942Z,1.5
2022-12-03T12:57:12.464Z,1.6
2022-12-03T12:58:27.984Z,1.8
2022-12-03T12:59:10.547Z,1.7
2022-12-03T13:00:09.128Z,1.7
2022-12-03T13:01:09.308Z,1.6
2022-12-03T13:02:10.313Z,1.8
2022-12-03T13:03:10.193Z,1.8
2022-12-03T13:04:09.395Z,1.9
2022-12-03T13:19:17.863Z,1.6
2022-12-03T13:23:53.739Z,1.6
2022-12-03T13:25:57.190Z,1.5
2022-12-03T13:27:06.587Z,1.6
2022-12-03T13:28:56.893Z,1.7
2022-12-03T13:29:57.291Z,1.7
2022-12-03T13:30:57.367Z,1.6
2022-12-03T13:31:57.195Z,1.6
2022-12-03T13:32:57.141Z,1.8
2022-12-03T13:33:57.263Z,1.8
2022-12-03T13:34:57.278Z,1.8
2022-12-03T13:35:57.289Z,1.9
2022-12-03T13:36:58.648Z,1.8
2022-12-03T13:37:57.393Z,1.6
2022-12-03T13:38:57.452Z,1.7
2022-12-03T13:39:57.565Z,1.7
2022-12-03T13:40:57.575Z,1.7
2022-12-03T13:41:57.639Z,1.6
2022-12-03T13:42:57.705Z,1.7
2022-12-03T13:44:05.309Z,1.7
2022-12-03T13:44:57.761Z,1.7
2022-12-03T13:45:57.839Z,1.8
2022-12-03T13:46:58.923Z,1.7
2022-12-03T13:48:02.755Z,1.6
2022-12-03T13:49:01.619Z,1.7
2022-12-03T13:49:58.039Z,1.7
2022-12-03T13:50:58.216Z,1.6
2022-12-03T13:51:58.172Z,1.6
2022-12-03T13:52:58.236Z,1.6
2022-12-03T13:54:58.314Z,1.5
2022-12-03T13:55:58.422Z,1.5
2022-12-03T13:56:58.449Z,1.6
2022-12-03T13:57:58.482Z,1.6
2022-12-03T13:58:58.792Z,1.6
2022-12-03T13:59:58.583Z,1.6
2022-12-03T14:31:52.206Z,1.4
2022-12-03T14:33:02.448Z,1.4
2022-12-03T14:33:52.230Z,1.4
2022-12-03T14:35:09.837Z,1.5
2022-12-03T14:35:52.309Z,1.5
2022-12-03T14:36:52.367Z,1.4
2022-12-03T14:37:52.403Z,1.4
2022-12-03T14:38:52.394Z,1.4
2022-12-03T14:45:30.760Z,1.4
2022-12-03T15:57:43.739Z,1.5
2022-12-03T15:58:43.737Z,1.5
2022-12-03T15:59:43.823Z,1.5
2022-12-03T16:00:50.388Z,1.4
2022-12-03T16:01:45.781Z,1.3
2022-12-03T16:07:44.308Z,1.4
2022-12-03T16:08:44.255Z,1.4
2022-12-03T16:09:44.502Z,1.6
2022-12-03T16:10:44.475Z,1.5
2022-12-03T16:11:44.539Z,1.5
2022-12-03T16:12:44.528Z,1.5
2022-12-03T16:13:44.613Z,1.5
2022-12-03T16:14:44.623Z,1.4
2022-12-03T16:15:44.767Z,1.4
2022-12-03T16:16:44.754Z,1.3
2022-12-03T16:17:44.768Z,1.3
2022-12-03T16:18:44.848Z,1.3
2022-12-03T16:19:44.879Z,1.3
2022-12-03T16:20:45.001Z,1.3
2022-12-03T16:21:45.131Z,1.3
2022-12-03T16:22:45.134Z,1.4
2022-12-03T16:23:45.141Z,1.4
2022-12-03T16:24:45.272Z,1.5
2022-12-03T16:25:45.277Z,1.5
2022-12-03T16:26:45.413Z,1.4
2022-12-03T16:27:45.413Z,1.3
2022-12-03T16:28:45.594Z,1.3
2022-12-03T16:29:45.579Z,1.4